sensor_id;sensor_type;location;lat;lon;timestamp;P1;durP1;ratioP1;P2;durP2;ratioP2
21339;SDS011;10828;47.064;15.422;2022-12-24T00:01:56;19.63;;;7.23;;
21339;SDS011;10828;47.064;15.422;2022-12-24T00:04:21;17.13;;;6.47;;
21339;SDS011;10828;47.064;15.422;2022-12-24T00:06:53;19.57;;;8.70;;
21339;SDS011;10828;47.064;15.422;2022-12-24T00:09:18;19.27;;;7.80;;
21339;SDS011;10828;47.064;15.422;2022-12-24T00:11:44;21.40;;;7.97;;
21339;SDS011;10828;47.064;15.422;2022-12-24T00:14:12;19.40;;;7.60;;
21339;SDS011;10828;47.064;15.422;2022-12-24T00:16:37;16.83;;;7.17;;
21339;SDS011;10828;47.064;15.422;2022-12-24T00:19:03;15.87;;;7.53;;
21339;SDS011;10828;47.064;15.422;2022-12-24T00:21:30;19.83;;;8.23;;
21339;SDS011;10828;47.064;15.422;2022-12-24T00:23:55;19.23;;;6.63;;
21339;SDS011;10828;47.064;15.422;2022-12-24T00:26:22;23.43;;;8.40;;
21339;SDS011;10828;47.064;15.422;2022-12-24T00:28:54;22.87;;;7.73;;
21339;SDS011;10828;47.064;15.422;2022-12-24T00:31:20;21.63;;;8.73;;
21339;SDS011;10828;47.064;15.422;2022-12-24T00:33:48;19.43;;;7.77;;
21339;SDS011;10828;47.064;15.422;2022-12-24T00:36:13;22.47;;;6.77;;
21339;SDS011;10828;47.064;15.422;2022-12-24T00:38:40;19.50;;;7.70;;
21339;SDS011;10828;47.064;15.422;2022-12-24T00:41:06;23.23;;;8.33;;
21339;SDS011;10828;47.064;15.422;2022-12-24T00:44:09;26.00;;;8.07;;
21339;SDS011;10828;47.064;15.422;2022-12-24T00:46:35;20.00;;;7.80;;
21339;SDS011;10828;47.064;15.422;2022-12-24T00:49:02;18.97;;;7.50;;
21339;SDS011;10828;47.064;15.422;2022-12-24T00:51:29;17.53;;;7.77;;
21339;SDS011;10828;47.064;15.422;2022-12-24T00:53:55;17.43;;;7.97;;
21339;SDS011;10828;47.064;15.422;2022-12-24T00:56:24;20.43;;;7.30;;
21339;SDS011;10828;47.064;15.422;2022-12-24T00:58:50;21.83;;;7.87;;
21339;SDS011;10828;47.064;15.422;2022-12-24T01:01:16;21.13;;;7.33;;
21339;SDS011;10828;47.064;15.422;2022-12-24T01:03:42;19.33;;;7.47;;
21339;SDS011;10828;47.064;15.422;2022-12-24T01:06:10;18.27;;;7.03;;
21339;SDS011;10828;47.064;15.422;2022-12-24T01:08:41;20.60;;;7.30;;
21339;SDS011;10828;47.064;15.422;2022-12-24T01:11:08;26.70;;;8.80;;
21339;SDS011;10828;47.064;15.422;2022-12-24T01:13:35;16.07;;;7.13;;
21339;SDS011;10828;47.064;15.422;2022-12-24T01:16:02;19.57;;;6.80;;
21339;SDS011;10828;47.064;15.422;2022-12-24T01:18:28;20.23;;;8.00;;
21339;SDS011;10828;47.064;15.422;2022-12-24T01:20:58;20.40;;;7.90;;
21339;SDS011;10828;47.064;15.422;2022-12-24T01:23:25;17.83;;;7.83;;
21339;SDS011;10828;47.064;15.422;2022-12-24T01:25:52;21.70;;;7.97;;
21339;SDS011;10828;47.064;15.422;2022-12-24T01:28:18;14.13;;;7.70;;
21339;SDS011;10828;47.064;15.422;2022-12-24T01:30:47;21.03;;;9.27;;
21339;SDS011;10828;47.064;15.422;2022-12-24T01:33:13;27.80;;;10.00;;
21339;SDS011;10828;47.064;15.422;2022-12-24T01:35:40;27.77;;;8.40;;
21339;SDS011;10828;47.064;15.422;2022-12-24T01:38:07;17.93;;;7.43;;
21339;SDS011;10828;47.064;15.422;2022-12-24T01:40:35;18.40;;;7.77;;
21339;SDS011;10828;47.064;15.422;2022-12-24T01:43:21;18.23;;;7.27;;
21339;SDS011;10828;47.064;15.422;2022-12-24T01:45:55;26.43;;;9.33;;
21339;SDS011;10828;47.064;15.422;2022-12-24T01:50:53;18.17;;;7.47;;
21339;SDS011;10828;47.064;15.422;2022-12-24T01:53:27;23.90;;;8.70;;
21339;SDS011;10828;47.064;15.422;2022-12-24T01:55:55;20.90;;;8.93;;
21339;SDS011;10828;47.064;15.422;2022-12-24T01:58:22;24.50;;;8.90;;
21339;SDS011;10828;47.064;15.422;2022-12-24T02:00:50;18.90;;;8.57;;
21339;SDS011;10828;47.064;15.422;2022-12-24T02:03:17;27.70;;;8.33;;
21339;SDS011;10828;47.064;15.422;2022-12-24T02:05:47;18.00;;;7.90;;
21339;SDS011;10828;47.064;15.422;2022-12-24T02:08:17;19.20;;;7.80;;
21339;SDS011;10828;47.064;15.422;2022-12-24T02:10:47;23.90;;;8.30;;
21339;SDS011;10828;47.064;15.422;2022-12-24T02:13:14;19.00;;;8.70;;
21339;SDS011;10828;47.064;15.422;2022-12-24T02:31:26;6.70;;;2.70;;
21339;SDS011;10828;47.064;15.422;2022-12-24T02:34:06;5.87;;;2.20;;
21339;SDS011;10828;47.064;15.422;2022-12-24T02:36:35;3.70;;;1.70;;
21339;SDS011;10828;47.064;15.422;2022-12-24T02:39:11;6.37;;;2.20;;
21339;SDS011;10828;47.064;15.422;2022-12-24T02:41:44;4.53;;;2.43;;
21339;SDS011;10828;47.064;15.422;2022-12-24T02:44:54;8.40;;;2.87;;
21339;SDS011;10828;47.064;15.422;2022-12-24T02:47:24;9.90;;;3.00;;
21339;SDS011;10828;47.064;15.422;2022-12-24T02:49:52;13.30;;;4.43;;
21339;SDS011;10828;47.064;15.422;2022-12-24T02:52:31;10.40;;;4.23;;
21339;SDS011;10828;47.064;15.422;2022-12-24T02:55:06;15.90;;;5.67;;
21339;SDS011;10828;47.064;15.422;2022-12-24T03:00:06;14.40;;;5.87;;
21339;SDS011;10828;47.064;15.422;2022-12-24T03:10:56;17.40;;;6.33;;
21339;SDS011;10828;47.064;15.422;2022-12-24T03:13:26;12.87;;;6.63;;
21339;SDS011;10828;47.064;15.422;2022-12-24T03:15:52;16.90;;;7.07;;
21339;SDS011;10828;47.064;15.422;2022-12-24T03:18:21;18.57;;;7.03;;
21339;SDS011;10828;47.064;15.422;2022-12-24T03:21:05;17.63;;;6.77;;
21339;SDS011;10828;47.064;15.422;2022-12-24T03:23:37;12.20;;;5.90;;
21339;SDS011;10828;47.064;15.422;2022-12-24T03:26:07;13.27;;;6.30;;
21339;SDS011;10828;47.064;15.422;2022-12-24T03:28:37;18.07;;;5.53;;
21339;SDS011;10828;47.064;15.422;2022-12-24T03:31:05;18.43;;;5.83;;
21339;SDS011;10828;47.064;15.422;2022-12-24T03:33:31;15.07;;;7.93;;
21339;SDS011;10828;47.064;15.422;2022-12-24T03:35:57;15.50;;;6.30;;
21339;SDS011;10828;47.064;15.422;2022-12-24T03:38:22;21.03;;;7.23;;
21339;SDS011;10828;47.064;15.422;2022-12-24T03:40:48;18.03;;;7.37;;
21339;SDS011;10828;47.064;15.422;2022-12-24T03:43:15;17.50;;;6.73;;
21339;SDS011;10828;47.064;15.422;2022-12-24T03:45:40;15.70;;;6.63;;
21339;SDS011;10828;47.064;15.422;2022-12-24T03:48:06;18.73;;;7.10;;
21339;SDS011;10828;47.064;15.422;2022-12-24T03:50:34;16.27;;;6.27;;
21339;SDS011;10828;47.064;15.422;2022-12-24T03:53:00;16.17;;;6.70;;
21339;SDS011;10828;47.064;15.422;2022-12-24T03:55:26;15.27;;;6.60;;
21339;SDS011;10828;47.064;15.422;2022-12-24T03:57:52;18.37;;;5.87;;
21339;SDS011;10828;47.064;15.422;2022-12-24T04:00:19;18.60;;;6.20;;
21339;SDS011;10828;47.064;15.422;2022-12-24T04:02:44;22.57;;;6.63;;
21339;SDS011;10828;47.064;15.422;2022-12-24T04:05:15;14.50;;;6.57;;
21339;SDS011;10828;47.064;15.422;2022-12-24T04:07:42;19.77;;;6.23;;
21339;SDS011;10828;47.064;15.422;2022-12-24T04:10:10;12.73;;;6.03;;
21339;SDS011;10828;47.064;15.422;2022-12-24T04:12:36;17.00;;;6.70;;
21339;SDS011;10828;47.064;15.422;2022-12-24T04:15:02;19.03;;;6.30;;
21339;SDS011;10828;47.064;15.422;2022-12-24T04:17:28;14.83;;;6.83;;
21339;SDS011;10828;47.064;15.422;2022-12-24T04:19:54;16.03;;;6.27;;
21339;SDS011;10828;47.064;15.422;2022-12-24T04:22:20;15.77;;;6.67;;
21339;SDS011;10828;47.064;15.422;2022-12-24T04:24:45;16.47;;;6.90;;
21339;SDS011;10828;47.064;15.422;2022-12-24T04:27:14;15.90;;;7.23;;
21339;SDS011;10828;47.064;15.422;2022-12-24T04:29:41;14.33;;;5.93;;
21339;SDS011;10828;47.064;15.422;2022-12-24T04:32:07;19.03;;;6.30;;
21339;SDS011;10828;47.064;15.422;2022-12-24T04:34:35;16.57;;;5.80;;
21339;SDS011;10828;47.064;15.422;2022-12-24T04:37:01;17.57;;;6.63;;
21339;SDS011;10828;47.064;15.422;2022-12-24T04:39:27;20.97;;;6.73;;
21339;SDS011;10828;47.064;15.422;2022-12-24T04:41:53;17.60;;;7.17;;
21339;SDS011;10828;47.064;15.422;2022-12-24T04:44:18;16.77;;;7.40;;
21339;SDS011;10828;47.064;15.422;2022-12-24T04:46:44;16.80;;;6.33;;
21339;SDS011;10828;47.064;15.422;2022-12-24T04:49:09;15.47;;;6.70;;
21339;SDS011;10828;47.064;15.422;2022-12-24T04:51:35;17.00;;;7.10;;
21339;SDS011;10828;47.064;15.422;2022-12-24T04:54:01;16.57;;;6.83;;
21339;SDS011;10828;47.064;15.422;2022-12-24T04:56:28;15.10;;;6.70;;
21339;SDS011;10828;47.064;15.422;2022-12-24T04:58:55;14.67;;;6.10;;
21339;SDS011;10828;47.064;15.422;2022-12-24T05:01:24;16.30;;;6.77;;
21339;SDS011;10828;47.064;15.422;2022-12-24T05:03:51;19.27;;;6.60;;
21339;SDS011;10828;47.064;15.422;2022-12-24T05:06:25;22.47;;;6.50;;
21339;SDS011;10828;47.064;15.422;2022-12-24T05:08:54;14.20;;;4.93;;
21339;SDS011;10828;47.064;15.422;2022-12-24T05:11:20;15.40;;;5.73;;
21339;SDS011;10828;47.064;15.422;2022-12-24T05:13:46;12.27;;;5.33;;
21339;SDS011;10828;47.064;15.422;2022-12-24T05:16:12;15.90;;;6.23;;
21339;SDS011;10828;47.064;15.422;2022-12-24T05:18:39;16.50;;;5.93;;
21339;SDS011;10828;47.064;15.422;2022-12-24T05:21:09;12.53;;;6.47;;
21339;SDS011;10828;47.064;15.422;2022-12-24T05:23:38;13.17;;;5.57;;
21339;SDS011;10828;47.064;15.422;2022-12-24T05:26:29;16.27;;;5.67;;
21339;SDS011;10828;47.064;15.422;2022-12-24T05:29:04;11.93;;;4.80;;
21339;SDS011;10828;47.064;15.422;2022-12-24T05:31:31;11.17;;;4.53;;
21339;SDS011;10828;47.064;15.422;2022-12-24T05:34:01;10.67;;;4.97;;
21339;SDS011;10828;47.064;15.422;2022-12-24T05:36:27;13.30;;;5.20;;
21339;SDS011;10828;47.064;15.422;2022-12-24T05:38:53;11.27;;;5.83;;
21339;SDS011;10828;47.064;15.422;2022-12-24T05:41:18;16.97;;;4.70;;
21339;SDS011;10828;47.064;15.422;2022-12-24T05:43:44;10.33;;;4.00;;
21339;SDS011;10828;47.064;15.422;2022-12-24T05:46:11;14.07;;;4.27;;
21339;SDS011;10828;47.064;15.422;2022-12-24T05:48:38;15.67;;;4.60;;
21339;SDS011;10828;47.064;15.422;2022-12-24T05:51:05;12.70;;;4.83;;
21339;SDS011;10828;47.064;15.422;2022-12-24T05:53:32;8.63;;;3.97;;
21339;SDS011;10828;47.064;15.422;2022-12-24T05:56:05;12.60;;;4.80;;
21339;SDS011;10828;47.064;15.422;2022-12-24T05:58:35;9.53;;;4.03;;
21339;SDS011;10828;47.064;15.422;2022-12-24T06:01:02;13.20;;;3.90;;
21339;SDS011;10828;47.064;15.422;2022-12-24T06:03:28;7.30;;;3.50;;
21339;SDS011;10828;47.064;15.422;2022-12-24T06:06:01;8.37;;;3.57;;
21339;SDS011;10828;47.064;15.422;2022-12-24T06:08:28;7.50;;;4.07;;
21339;SDS011;10828;47.064;15.422;2022-12-24T06:10:58;6.23;;;3.30;;
21339;SDS011;10828;47.064;15.422;2022-12-24T06:13:25;7.00;;;3.10;;
21339;SDS011;10828;47.064;15.422;2022-12-24T06:15:55;8.93;;;3.13;;
21339;SDS011;10828;47.064;15.422;2022-12-24T06:18:25;8.30;;;2.77;;
21339;SDS011;10828;47.064;15.422;2022-12-24T06:20:53;7.87;;;3.27;;
21339;SDS011;10828;47.064;15.422;2022-12-24T06:23:21;6.83;;;2.97;;
21339;SDS011;10828;47.064;15.422;2022-12-24T06:25:48;9.90;;;2.70;;
21339;SDS011;10828;47.064;15.422;2022-12-24T06:28:14;5.77;;;3.03;;
21339;SDS011;10828;47.064;15.422;2022-12-24T06:30:45;6.47;;;2.63;;
21339;SDS011;10828;47.064;15.422;2022-12-24T06:33:11;3.50;;;2.07;;
21339;SDS011;10828;47.064;15.422;2022-12-24T06:35:38;5.00;;;1.90;;
21339;SDS011;10828;47.064;15.422;2022-12-24T06:38:03;5.53;;;2.47;;
21339;SDS011;10828;47.064;15.422;2022-12-24T06:40:29;6.23;;;2.97;;
21339;SDS011;10828;47.064;15.422;2022-12-24T06:42:55;5.67;;;1.80;;
21339;SDS011;10828;47.064;15.422;2022-12-24T06:45:20;6.30;;;1.70;;
21339;SDS011;10828;47.064;15.422;2022-12-24T06:47:46;7.20;;;2.43;;
21339;SDS011;10828;47.064;15.422;2022-12-24T06:50:12;7.07;;;2.90;;
21339;SDS011;10828;47.064;15.422;2022-12-24T06:52:37;5.17;;;2.00;;
21339;SDS011;10828;47.064;15.422;2022-12-24T06:55:05;5.97;;;2.67;;
21339;SDS011;10828;47.064;15.422;2022-12-24T06:57:31;6.40;;;2.33;;
21339;SDS011;10828;47.064;15.422;2022-12-24T06:59:57;9.70;;;2.03;;
21339;SDS011;10828;47.064;15.422;2022-12-24T07:02:23;5.83;;;2.43;;
21339;SDS011;10828;47.064;15.422;2022-12-24T07:04:49;6.37;;;2.40;;
21339;SDS011;10828;47.064;15.422;2022-12-24T07:07:15;5.47;;;2.20;;
21339;SDS011;10828;47.064;15.422;2022-12-24T07:09:40;5.43;;;2.53;;
21339;SDS011;10828;47.064;15.422;2022-12-24T07:12:06;9.87;;;4.23;;
21339;SDS011;10828;47.064;15.422;2022-12-24T07:14:33;6.00;;;3.07;;
21339;SDS011;10828;47.064;15.422;2022-12-24T07:16:58;6.57;;;2.33;;
21339;SDS011;10828;47.064;15.422;2022-12-24T07:19:25;7.30;;;2.60;;
21339;SDS011;10828;47.064;15.422;2022-12-24T07:21:50;6.07;;;2.80;;
21339;SDS011;10828;47.064;15.422;2022-12-24T07:24:16;4.17;;;1.70;;
21339;SDS011;10828;47.064;15.422;2022-12-24T07:26:43;7.50;;;2.47;;
21339;SDS011;10828;47.064;15.422;2022-12-24T07:29:08;6.10;;;2.37;;
21339;SDS011;10828;47.064;15.422;2022-12-24T07:31:34;6.80;;;3.07;;
21339;SDS011;10828;47.064;15.422;2022-12-24T07:33:59;5.73;;;2.70;;
21339;SDS011;10828;47.064;15.422;2022-12-24T07:36:25;5.97;;;2.97;;
21339;SDS011;10828;47.064;15.422;2022-12-24T07:38:52;8.03;;;2.60;;
21339;SDS011;10828;47.064;15.422;2022-12-24T07:41:18;8.53;;;2.97;;
21339;SDS011;10828;47.064;15.422;2022-12-24T07:43:43;12.23;;;4.30;;
21339;SDS011;10828;47.064;15.422;2022-12-24T07:46:09;6.83;;;2.90;;
21339;SDS011;10828;47.064;15.422;2022-12-24T07:48:35;8.10;;;3.53;;
21339;SDS011;10828;47.064;15.422;2022-12-24T07:51:00;12.43;;;3.00;;
21339;SDS011;10828;47.064;15.422;2022-12-24T07:53:26;8.80;;;2.87;;
21339;SDS011;10828;47.064;15.422;2022-12-24T07:55:53;7.03;;;2.80;;
21339;SDS011;10828;47.064;15.422;2022-12-24T07:58:19;5.17;;;2.93;;
21339;SDS011;10828;47.064;15.422;2022-12-24T08:00:45;5.40;;;2.50;;
21339;SDS011;10828;47.064;15.422;2022-12-24T08:03:18;10.60;;;4.03;;
21339;SDS011;10828;47.064;15.422;2022-12-24T08:05:45;8.83;;;4.03;;
21339;SDS011;10828;47.064;15.422;2022-12-24T08:08:11;10.57;;;3.60;;
21339;SDS011;10828;47.064;15.422;2022-12-24T08:10:37;7.67;;;3.23;;
21339;SDS011;10828;47.064;15.422;2022-12-24T08:13:04;9.53;;;3.90;;
21339;SDS011;10828;47.064;15.422;2022-12-24T08:15:30;7.20;;;3.20;;
21339;SDS011;10828;47.064;15.422;2022-12-24T08:17:57;5.27;;;2.73;;
21339;SDS011;10828;47.064;15.422;2022-12-24T08:20:23;6.13;;;2.73;;
21339;SDS011;10828;47.064;15.422;2022-12-24T08:22:48;9.97;;;2.97;;
21339;SDS011;10828;47.064;15.422;2022-12-24T08:25:14;8.70;;;3.60;;
21339;SDS011;10828;47.064;15.422;2022-12-24T08:27:46;8.10;;;3.67;;
21339;SDS011;10828;47.064;15.422;2022-12-24T08:30:12;12.17;;;4.30;;
21339;SDS011;10828;47.064;15.422;2022-12-24T08:32:38;11.03;;;3.17;;
21339;SDS011;10828;47.064;15.422;2022-12-24T08:35:05;8.13;;;3.20;;
21339;SDS011;10828;47.064;15.422;2022-12-24T08:37:31;6.70;;;3.13;;
21339;SDS011;10828;47.064;15.422;2022-12-24T08:39:59;11.07;;;3.60;;
21339;SDS011;10828;47.064;15.422;2022-12-24T08:42:24;8.63;;;3.33;;
21339;SDS011;10828;47.064;15.422;2022-12-24T08:44:50;15.63;;;3.63;;
21339;SDS011;10828;47.064;15.422;2022-12-24T08:47:18;8.83;;;3.83;;
21339;SDS011;10828;47.064;15.422;2022-12-24T08:49:43;8.37;;;3.40;;
21339;SDS011;10828;47.064;15.422;2022-12-24T08:52:09;9.57;;;4.03;;
21339;SDS011;10828;47.064;15.422;2022-12-24T08:54:35;8.63;;;3.27;;
21339;SDS011;10828;47.064;15.422;2022-12-24T08:57:04;10.47;;;3.47;;
21339;SDS011;10828;47.064;15.422;2022-12-24T08:59:31;11.33;;;3.80;;
21339;SDS011;10828;47.064;15.422;2022-12-24T09:01:57;8.17;;;3.07;;
21339;SDS011;10828;47.064;15.422;2022-12-24T09:04:23;8.43;;;3.17;;
21339;SDS011;10828;47.064;15.422;2022-12-24T09:06:49;9.27;;;3.63;;
21339;SDS011;10828;47.064;15.422;2022-12-24T09:09:15;11.67;;;3.60;;
21339;SDS011;10828;47.064;15.422;2022-12-24T09:11:42;7.93;;;3.10;;
21339;SDS011;10828;47.064;15.422;2022-12-24T09:14:07;10.20;;;4.07;;
21339;SDS011;10828;47.064;15.422;2022-12-24T09:16:33;12.60;;;3.97;;
21339;SDS011;10828;47.064;15.422;2022-12-24T09:18:59;10.00;;;3.53;;
21339;SDS011;10828;47.064;15.422;2022-12-24T09:21:25;9.80;;;3.97;;
21339;SDS011;10828;47.064;15.422;2022-12-24T09:23:52;9.43;;;3.47;;
21339;SDS011;10828;47.064;15.422;2022-12-24T09:26:21;18.80;;;5.57;;
21339;SDS011;10828;47.064;15.422;2022-12-24T09:28:49;16.60;;;7.20;;
21339;SDS011;10828;47.064;15.422;2022-12-24T09:31:15;16.93;;;7.63;;
21339;SDS011;10828;47.064;15.422;2022-12-24T09:33:41;17.63;;;7.77;;
21339;SDS011;10828;47.064;15.422;2022-12-24T09:36:09;20.90;;;7.77;;
21339;SDS011;10828;47.064;15.422;2022-12-24T09:38:36;19.83;;;7.60;;
21339;SDS011;10828;47.064;15.422;2022-12-24T09:41:10;22.13;;;8.37;;
21339;SDS011;10828;47.064;15.422;2022-12-24T09:43:53;26.93;;;8.10;;
21339;SDS011;10828;47.064;15.422;2022-12-24T09:46:26;20.00;;;8.27;;
21339;SDS011;10828;47.064;15.422;2022-12-24T09:48:57;23.53;;;8.93;;
21339;SDS011;10828;47.064;15.422;2022-12-24T09:51:31;24.93;;;9.00;;
21339;SDS011;10828;47.064;15.422;2022-12-24T09:54:20;28.80;;;8.77;;
21339;SDS011;10828;47.064;15.422;2022-12-24T09:56:50;19.63;;;8.50;;
21339;SDS011;10828;47.064;15.422;2022-12-24T09:59:38;21.43;;;7.90;;
21339;SDS011;10828;47.064;15.422;2022-12-24T10:02:10;24.40;;;9.43;;
21339;SDS011;10828;47.064;15.422;2022-12-24T10:04:38;21.87;;;9.03;;
21339;SDS011;10828;47.064;15.422;2022-12-24T10:09:51;22.30;;;8.63;;
21339;SDS011;10828;47.064;15.422;2022-12-24T10:21:17;21.00;;;8.50;;
21339;SDS011;10828;47.064;15.422;2022-12-24T10:26:56;19.27;;;8.17;;
21339;SDS011;10828;47.064;15.422;2022-12-24T10:29:30;21.37;;;7.87;;
21339;SDS011;10828;47.064;15.422;2022-12-24T10:34:35;23.17;;;8.00;;
21339;SDS011;10828;47.064;15.422;2022-12-24T10:37:10;18.30;;;6.97;;
21339;SDS011;10828;47.064;15.422;2022-12-24T10:39:41;20.10;;;7.57;;
21339;SDS011;10828;47.064;15.422;2022-12-24T10:42:07;18.90;;;7.10;;
21339;SDS011;10828;47.064;15.422;2022-12-24T10:44:35;17.83;;;7.50;;
21339;SDS011;10828;47.064;15.422;2022-12-24T10:47:00;17.40;;;6.23;;
21339;SDS011;10828;47.064;15.422;2022-12-24T10:49:38;16.90;;;7.07;;
21339;SDS011;10828;47.064;15.422;2022-12-24T10:52:27;22.57;;;7.93;;
21339;SDS011;10828;47.064;15.422;2022-12-24T10:55:03;18.57;;;7.37;;
21339;SDS011;10828;47.064;15.422;2022-12-24T10:57:33;22.47;;;8.07;;
21339;SDS011;10828;47.064;15.422;2022-12-24T10:59:59;16.67;;;8.10;;
21339;SDS011;10828;47.064;15.422;2022-12-24T11:02:29;17.17;;;7.93;;
21339;SDS011;10828;47.064;15.422;2022-12-24T11:04:57;19.40;;;7.07;;
21339;SDS011;10828;47.064;15.422;2022-12-24T11:07:24;14.93;;;8.03;;
21339;SDS011;10828;47.064;15.422;2022-12-24T11:09:54;21.33;;;8.07;;
21339;SDS011;10828;47.064;15.422;2022-12-24T11:12:28;21.93;;;7.53;;
21339;SDS011;10828;47.064;15.422;2022-12-24T11:15:06;19.90;;;7.87;;
21339;SDS011;10828;47.064;15.422;2022-12-24T11:17:53;20.10;;;7.97;;
21339;SDS011;10828;47.064;15.422;2022-12-24T11:20:25;20.50;;;7.67;;
21339;SDS011;10828;47.064;15.422;2022-12-24T11:22:52;20.13;;;8.10;;
21339;SDS011;10828;47.064;15.422;2022-12-24T11:27:45;15.63;;;6.70;;
21339;SDS011;10828;47.064;15.422;2022-12-24T11:32:47;10.60;;;5.00;;
21339;SDS011;10828;47.064;15.422;2022-12-24T11:37:40;15.17;;;6.00;;
21339;SDS011;10828;47.064;15.422;2022-12-24T11:40:16;17.43;;;7.10;;
21339;SDS011;10828;47.064;15.422;2022-12-24T11:42:45;17.30;;;7.23;;
21339;SDS011;10828;47.064;15.422;2022-12-24T11:45:27;16.83;;;6.30;;
21339;SDS011;10828;47.064;15.422;2022-12-24T11:47:55;18.57;;;7.03;;
21339;SDS011;10828;47.064;15.422;2022-12-24T11:50:23;22.70;;;8.17;;
21339;SDS011;10828;47.064;15.422;2022-12-24T11:52:56;15.57;;;6.97;;
21339;SDS011;10828;47.064;15.422;2022-12-24T11:58:15;17.63;;;7.90;;
21339;SDS011;10828;47.064;15.422;2022-12-24T12:00:45;18.23;;;6.90;;
21339;SDS011;10828;47.064;15.422;2022-12-24T12:03:21;15.40;;;5.97;;
21339;SDS011;10828;47.064;15.422;2022-12-24T12:06:00;15.63;;;6.17;;
21339;SDS011;10828;47.064;15.422;2022-12-24T12:08:31;23.53;;;7.17;;
21339;SDS011;10828;47.064;15.422;2022-12-24T12:10:59;14.93;;;6.87;;
21339;SDS011;10828;47.064;15.422;2022-12-24T12:13:28;14.50;;;6.80;;
21339;SDS011;10828;47.064;15.422;2022-12-24T12:18:58;11.93;;;5.90;;
21339;SDS011;10828;47.064;15.422;2022-12-24T12:21:42;13.67;;;5.97;;
21339;SDS011;10828;47.064;15.422;2022-12-24T12:24:14;15.60;;;6.00;;
21339;SDS011;10828;47.064;15.422;2022-12-24T12:30:11;16.17;;;6.20;;
21339;SDS011;10828;47.064;15.422;2022-12-24T12:38:03;16.70;;;6.67;;
21339;SDS011;10828;47.064;15.422;2022-12-24T12:46:00;17.10;;;6.93;;
21339;SDS011;10828;47.064;15.422;2022-12-24T12:57:11;12.60;;;6.77;;
21339;SDS011;10828;47.064;15.422;2022-12-24T12:59:43;28.70;;;7.43;;
21339;SDS011;10828;47.064;15.422;2022-12-24T13:19:18;13.77;;;7.17;;
21339;SDS011;10828;47.064;15.422;2022-12-24T13:22:13;16.17;;;7.33;;
21339;SDS011;10828;47.064;15.422;2022-12-24T13:24:46;19.47;;;7.60;;
21339;SDS011;10828;47.064;15.422;2022-12-24T13:27:22;15.70;;;6.63;;
21339;SDS011;10828;47.064;15.422;2022-12-24T13:29:55;20.47;;;7.57;;
21339;SDS011;10828;47.064;15.422;2022-12-24T13:34:50;17.97;;;6.83;;
21339;SDS011;10828;47.064;15.422;2022-12-24T13:42:49;12.87;;;6.40;;
21339;SDS011;10828;47.064;15.422;2022-12-24T13:48:00;15.67;;;7.00;;
21339;SDS011;10828;47.064;15.422;2022-12-24T13:53:46;20.03;;;6.70;;
21339;SDS011;10828;47.064;15.422;2022-12-24T13:58:52;17.70;;;7.37;;
21339;SDS011;10828;47.064;15.422;2022-12-24T14:01:34;20.77;;;8.20;;
21339;SDS011;10828;47.064;15.422;2022-12-24T23:16:10;8.57;;;1.90;;
21339;SDS011;10828;47.064;15.422;2022-12-24T23:18:38;6.23;;;2.20;;
21339;SDS011;10828;47.064;15.422;2022-12-24T23:21:04;4.93;;;2.27;;
21339;SDS011;10828;47.064;15.422;2022-12-24T23:23:31;6.20;;;2.70;;
21339;SDS011;10828;47.064;15.422;2022-12-24T23:26:04;7.13;;;2.33;;
21339;SDS011;10828;47.064;15.422;2022-12-24T23:28:33;7.37;;;2.83;;
21339;SDS011;10828;47.064;15.422;2022-12-24T23:30:59;5.83;;;2.67;;
21339;SDS011;10828;47.064;15.422;2022-12-24T23:33:25;7.67;;;2.43;;
21339;SDS011;10828;47.064;15.422;2022-12-24T23:35:52;5.33;;;2.50;;
21339;SDS011;10828;47.064;15.422;2022-12-24T23:38:18;13.70;;;5.80;;
21339;SDS011;10828;47.064;15.422;2022-12-24T23:41:00;15.57;;;6.23;;
21339;SDS011;10828;47.064;15.422;2022-12-24T23:43:29;22.97;;;7.77;;
21339;SDS011;10828;47.064;15.422;2022-12-24T23:45:54;29.07;;;11.50;;
21339;SDS011;10828;47.064;15.422;2022-12-24T23:48:22;28.33;;;11.07;;
21339;SDS011;10828;47.064;15.422;2022-12-24T23:50:48;31.97;;;11.47;;
21339;SDS011;10828;47.064;15.422;2022-12-24T23:55:49;35.50;;;12.37;;
21339;SDS011;10828;47.064;15.422;2022-12-24T23:58:15;35.00;;;12.73;;
